Time;durP1;ratioP1;P1;durP2;ratioP2;P2;SDS_P1;SDS_P2;PMS_P1;PMS_P2;Temp;Humidity;BMP_temperature;BMP_pressure;BME280_temperature;BME280_humidity;BME280_pressure;Samples;Min_cycle;Max_cycle;Signal;HPM_P1;HPM_P2
2021/03/21 00:02:19;;;;;;;6.83;5.93;;;;;;;;;;5035815;28;20247;-77
2021/03/21 00:04:45;;;;;;;7.70;6.40;;;;;;;;;;5052912;28;20235;-78
2021/03/21 00:07:11;;;;;;;7.03;6.27;;;;;;;;;;5054715;28;20592;-78
2021/03/21 00:09:37;;;;;;;7.47;6.43;;;;;;;;;;5038828;28;20180;-78
2021/03/21 00:12:04;;;;;;;7.17;6.00;;;;;;;;;;5038739;28;20182;-78
2021/03/21 00:14:31;;;;;;;8.20;6.77;;;;;;;;;;5038381;28;20645;-78
2021/03/21 00:16:57;;;;;;;7.37;6.13;;;;;;;;;;5038478;28;20192;-78
2021/03/21 00:19:23;;;;;;;6.70;5.73;;;;;;;;;;5038178;28;20208;-78
2021/03/21 00:21:49;;;;;;;7.33;6.27;;;;;;;;;;5037816;28;20208;-78
2021/03/21 00:24:15;;;;;;;7.90;6.43;;;;;;;;;;5037909;28;20192;-78
2021/03/21 00:26:41;;;;;;;9.43;6.97;;;;;;;;;;5037907;28;20178;-77
2021/03/21 00:29:08;;;;;;;8.07;6.30;;;;;;;;;;5037874;28;20207;-77
2021/03/21 00:31:34;;;;;;;9.30;6.50;;;;;;;;;;5037885;28;20225;-78
2021/03/21 00:34:00;;;;;;;8.53;7.03;;;;;;;;;;5037916;28;20265;-79
2021/03/21 00:36:26;;;;;;;7.67;6.80;;;;;;;;;;5038061;28;20598;-77
2021/03/21 00:38:53;;;;;;;8.07;6.80;;;;;;;;;;5037713;28;20201;-77
2021/03/21 00:41:20;;;;;;;8.27;7.00;;;;;;;;;;5037587;28;20265;-78
2021/03/21 00:43:46;;;;;;;8.03;6.67;;;;;;;;;;5037645;28;20212;-77
2021/03/21 00:46:12;;;;;;;7.47;6.60;;;;;;;;;;5037704;28;20243;-78
2021/03/21 00:48:39;;;;;;;7.33;6.43;;;;;;;;;;5037442;28;20232;-78
2021/03/21 00:51:05;;;;;;;8.10;6.97;;;;;;;;;;5037392;28;20218;-78
2021/03/21 00:53:31;;;;;;;7.97;6.50;;;;;;;;;;5037785;28;20650;-78
2021/03/21 00:55:58;;;;;;;9.67;6.40;;;;;;;;;;5037709;28;20189;-78
2021/03/21 00:58:24;;;;;;;8.07;6.40;;;;;;;;;;5037557;28;20283;-78
2021/03/21 01:00:51;;;;;;;6.23;5.50;;;;;;;;;;5037686;28;20710;-78
2021/03/21 01:03:17;;;;;;;7.57;6.10;;;;;;;;;;5037289;28;20209;-77
2021/03/21 01:05:44;;;;;;;8.20;5.73;;;;;;;;;;5037781;28;20176;-78
2021/03/21 01:08:19;;;;;;;5.47;4.87;;;;;;;;;;5037397;28;20691;-78
2021/03/21 01:10:46;;;;;;;6.00;5.30;;;;;;;;;;5070650;28;20226;-77
2021/03/21 01:13:12;;;;;;;5.77;4.97;;;;;;;;;;5037455;28;20181;-78
2021/03/21 01:15:38;;;;;;;6.17;5.10;;;;;;;;;;5037516;28;20187;-78
2021/03/21 01:18:04;;;;;;;6.10;5.00;;;;;;;;;;5037338;28;20675;-78
2021/03/21 01:20:30;;;;;;;7.03;5.10;;;;;;;;;;5039677;28;20547;-78
2021/03/21 01:22:56;;;;;;;7.10;5.43;;;;;;;;;;5041247;28;20208;-77
2021/03/21 01:25:23;;;;;;;6.33;5.53;;;;;;;;;;5058102;28;20177;-78
2021/03/21 01:27:49;;;;;;;8.10;5.70;;;;;;;;;;5041189;28;20196;-78
2021/03/21 01:30:15;;;;;;;8.67;6.00;;;;;;;;;;5041265;28;20633;-78
2021/03/21 01:32:41;;;;;;;7.57;6.07;;;;;;;;;;5041256;28;20180;-78
2021/03/21 01:35:08;;;;;;;6.90;6.20;;;;;;;;;;5041331;28;20212;-78
2021/03/21 01:37:34;;;;;;;7.47;6.63;;;;;;;;;;5041475;28;20198;-78
2021/03/21 01:40:00;;;;;;;8.27;6.17;;;;;;;;;;5042093;28;20188;-77
2021/03/21 01:42:26;;;;;;;7.93;6.23;;;;;;;;;;5041918;28;20205;-78
2021/03/21 01:44:55;;;;;;;7.07;5.60;;;;;;;;;;5041238;28;20229;-78
2021/03/21 01:47:32;;;;;;;7.80;6.37;;;;;;;;;;5041063;28;20185;-78
2021/03/21 01:49:58;;;;;;;7.33;6.50;;;;;;;;;;5041148;28;20177;-77
2021/03/21 01:52:36;;;;;;;10.03;6.73;;;;;;;;;;5040829;28;20182;-78
2021/03/21 01:55:02;;;;;;;8.00;6.73;;;;;;;;;;5040913;28;20197;-78
2021/03/21 01:57:28;;;;;;;7.80;6.63;;;;;;;;;;5040693;28;20186;-78
2021/03/21 01:59:55;;;;;;;8.33;6.67;;;;;;;;;;5040737;28;20542;-78
2021/03/21 02:02:21;;;;;;;9.13;6.60;;;;;;;;;;5040635;28;20213;-78
2021/03/21 02:04:47;;;;;;;7.47;6.17;;;;;;;;;;5040729;28;20184;-78
2021/03/21 02:07:16;;;;;;;8.37;6.00;;;;;;;;;;5040629;28;20181;-78
2021/03/21 02:09:43;;;;;;;8.17;6.47;;;;;;;;;;5040633;28;20184;-78
2021/03/21 02:12:30;;;;;;;7.67;6.40;;;;;;;;;;5040315;28;20205;-78
2021/03/21 02:15:15;;;;;;;7.03;5.70;;;;;;;;;;5040556;28;20595;-78
2021/03/21 02:18:07;;;;;;;6.40;5.33;;;;;;;;;;5074654;28;20678;-78
2021/03/21 02:20:43;;;;;;;6.13;5.20;;;;;;;;;;5071309;28;20667;-78
2021/03/21 02:23:29;;;;;;;9.23;6.00;;;;;;;;;;5073237;28;20199;-78
2021/03/21 02:25:58;;;;;;;6.07;5.20;;;;;;;;;;5043274;28;20189;-78
2021/03/21 02:28:57;;;;;;;7.93;5.47;;;;;;;;;;5073291;28;20198;-77
2021/03/21 02:31:37;;;;;;;6.90;6.00;;;;;;;;;;5013328;28;20230;-78
2021/03/21 02:34:05;;;;;;;6.07;5.30;;;;;;;;;;5040372;28;20585;-78
2021/03/21 02:36:37;;;;;;;6.07;5.17;;;;;;;;;;5040225;28;20173;-78
2021/03/21 02:39:06;;;;;;;6.30;4.90;;;;;;;;;;5056670;28;20220;-78
2021/03/21 02:41:34;;;;;;;7.77;5.67;;;;;;;;;;5073043;28;20640;-78
2021/03/21 02:44:03;;;;;;;6.93;5.03;;;;;;;;;;5039981;28;20177;-78
2021/03/21 02:46:30;;;;;;;6.60;4.80;;;;;;;;;;5039743;28;20188;-78
2021/03/21 02:49:34;;;;;;;7.53;5.67;;;;;;;;;;5039833;28;20200;-78
2021/03/21 02:52:08;;;;;;;8.47;5.77;;;;;;;;;;4976137;28;20218;-78
2021/03/21 02:54:45;;;;;;;7.90;5.33;;;;;;;;;;4976462;28;20176;-78
2021/03/21 02:57:15;;;;;;;6.77;5.30;;;;;;;;;;5024146;28;20207;-78
2021/03/21 02:59:45;;;;;;;8.10;5.70;;;;;;;;;;5039742;28;20193;-78
2021/03/21 03:02:12;;;;;;;7.13;5.70;;;;;;;;;;5038644;28;20209;-78
2021/03/21 03:04:43;;;;;;;7.27;5.70;;;;;;;;;;5039797;28;20173;-79
2021/03/21 03:07:13;;;;;;;6.30;5.23;;;;;;;;;;5056411;28;20237;-78
2021/03/21 03:09:44;;;;;;;8.00;5.70;;;;;;;;;;5039700;28;20586;-77
2021/03/21 03:12:20;;;;;;;6.47;5.77;;;;;;;;;;5040107;28;20177;-78
2021/03/21 03:14:47;;;;;;;6.30;5.57;;;;;;;;;;5039520;28;20244;-78
2021/03/21 03:17:13;;;;;;;6.10;5.40;;;;;;;;;;5039560;28;20598;-78
2021/03/21 03:19:55;;;;;;;6.67;5.50;;;;;;;;;;5072572;28;20226;-78
2021/03/21 03:22:23;;;;;;;6.80;5.53;;;;;;;;;;5039050;28;20201;-78
2021/03/21 03:25:08;;;;;;;7.23;5.67;;;;;;;;;;5039170;28;20223;-78
2021/03/21 03:27:53;;;;;;;7.70;6.20;;;;;;;;;;5072237;28;20292;-78
2021/03/21 03:30:23;;;;;;;7.63;6.03;;;;;;;;;;5072127;28;20169;-78
2021/03/21 03:32:49;;;;;;;8.17;6.10;;;;;;;;;;5055541;28;20181;-78
2021/03/21 03:35:16;;;;;;;8.50;6.77;;;;;;;;;;5039086;28;20633;-78
2021/03/21 03:37:42;;;;;;;7.37;6.00;;;;;;;;;;5039066;28;20202;-78
2021/03/21 03:40:09;;;;;;;9.43;6.20;;;;;;;;;;5039119;28;20287;-79
2021/03/21 03:42:38;;;;;;;7.53;6.27;;;;;;;;;;5038195;28;20219;-78
2021/03/21 03:45:18;;;;;;;8.70;6.20;;;;;;;;;;5073067;28;20182;-78
2021/03/21 03:47:44;;;;;;;8.10;6.37;;;;;;;;;;5055363;28;20275;-78
2021/03/21 03:50:10;;;;;;;7.10;6.30;;;;;;;;;;5074931;28;20181;-79
2021/03/21 03:52:46;;;;;;;7.70;6.20;;;;;;;;;;5079420;28;20200;-78
2021/03/21 03:55:18;;;;;;;7.27;5.87;;;;;;;;;;5072245;28;20292;-78
2021/03/21 03:57:46;;;;;;;7.77;6.03;;;;;;;;;;5071677;28;20684;-78
2021/03/21 04:00:14;;;;;;;8.90;6.10;;;;;;;;;;5038430;28;20633;-79
2021/03/21 04:02:40;;;;;;;9.70;6.40;;;;;;;;;;5038130;28;20235;-78
2021/03/21 04:05:09;;;;;;;8.27;6.10;;;;;;;;;;5071565;28;20641;-78
2021/03/21 04:07:39;;;;;;;7.60;6.27;;;;;;;;;;5055318;28;20203;-79
2021/03/21 04:10:09;;;;;;;8.13;6.53;;;;;;;;;;5038469;28;20655;-80
2021/03/21 04:12:39;;;;;;;8.60;6.33;;;;;;;;;;5038357;28;20254;-79
2021/03/21 04:15:07;;;;;;;8.37;6.50;;;;;;;;;;5038684;28;20212;-79
2021/03/21 04:17:46;;;;;;;8.40;6.70;;;;;;;;;;5038870;28;20214;-78
2021/03/21 04:20:17;;;;;;;8.63;7.00;;;;;;;;;;5038381;28;20239;-79
2021/03/21 04:22:44;;;;;;;9.63;6.63;;;;;;;;;;5038040;28;20208;-79
2021/03/21 04:25:15;;;;;;;8.83;6.83;;;;;;;;;;5038310;28;20215;-78
2021/03/21 04:28:01;;;;;;;11.27;7.70;;;;;;;;;;5037893;28;20209;-78
2021/03/21 04:30:35;;;;;;;8.50;6.87;;;;;;;;;;5073234;28;20227;-78
2021/03/21 04:33:01;;;;;;;7.97;6.80;;;;;;;;;;5037556;28;20188;-78
2021/03/21 04:35:35;;;;;;;8.30;6.77;;;;;;;;;;5037616;28;20178;-78
2021/03/21 04:38:21;;;;;;;9.80;7.73;;;;;;;;;;5038117;28;20776;-78
2021/03/21 04:40:47;;;;;;;8.30;7.10;;;;;;;;;;5040588;28;20189;-78
2021/03/21 04:43:18;;;;;;;8.20;6.63;;;;;;;;;;5037372;28;20205;-78
2021/03/21 04:45:45;;;;;;;7.70;6.70;;;;;;;;;;5037749;28;20286;-78
2021/03/21 04:48:12;;;;;;;7.53;6.50;;;;;;;;;;5037674;28;20194;-78
2021/03/21 04:50:38;;;;;;;7.83;6.60;;;;;;;;;;5037475;28;20644;-78
2021/03/21 04:53:06;;;;;;;10.07;6.03;;;;;;;;;;5054242;28;20226;-78
2021/03/21 04:55:42;;;;;;;6.90;6.10;;;;;;;;;;5036741;28;20586;-78
2021/03/21 04:58:12;;;;;;;7.93;6.67;;;;;;;;;;5037620;28;20197;-78
2021/03/21 05:00:41;;;;;;;7.47;6.67;;;;;;;;;;5037635;28;20185;-79
2021/03/21 05:03:13;;;;;;;7.00;6.30;;;;;;;;;;5037308;28;20224;-78
2021/03/21 05:05:52;;;;;;;7.37;5.87;;;;;;;;;;5037517;28;20182;-78
2021/03/21 05:08:21;;;;;;;7.23;5.93;;;;;;;;;;5037521;28;20415;-78
2021/03/21 05:10:48;;;;;;;6.17;5.57;;;;;;;;;;5037756;28;20188;-79
2021/03/21 05:13:23;;;;;;;7.83;6.00;;;;;;;;;;5037471;28;20186;-79
2021/03/21 05:15:52;;;;;;;6.50;5.80;;;;;;;;;;5070712;28;20189;-78
2021/03/21 05:18:28;;;;;;;6.80;5.87;;;;;;;;;;5070641;28;20209;-78
2021/03/21 05:21:03;;;;;;;7.10;5.63;;;;;;;;;;5070668;28;20181;-79
2021/03/21 05:23:32;;;;;;;7.07;5.63;;;;;;;;;;5070504;28;20626;-79
2021/03/21 05:26:06;;;;;;;6.43;5.53;;;;;;;;;;5070609;28;20695;-79
2021/03/21 05:28:51;;;;;;;6.40;5.13;;;;;;;;;;5037444;28;20204;-79
2021/03/21 05:31:17;;;;;;;6.73;5.40;;;;;;;;;;5070588;28;20181;-79
2021/03/21 05:33:43;;;;;;;8.93;5.13;;;;;;;;;;5037256;28;20219;-78
2021/03/21 05:36:33;;;;;;;6.87;6.17;;;;;;;;;;5053967;28;20184;-79
2021/03/21 05:38:59;;;;;;;7.17;5.60;;;;;;;;;;5017039;28;20216;-78
2021/03/21 05:41:44;;;;;;;9.03;6.60;;;;;;;;;;5037239;28;20219;-79
2021/03/21 05:44:19;;;;;;;6.63;4.93;;;;;;;;;;5070389;28;20185;-79
2021/03/21 05:47:04;;;;;;;6.80;5.30;;;;;;;;;;5070374;28;20181;-79
2021/03/21 05:49:49;;;;;;;6.13;4.80;;;;;;;;;;5050303;23;20223;-77
2021/03/21 05:52:15;;;;;;;6.87;4.80;;;;;;;;;;5013655;28;20183;-77
2021/03/21 05:55:00;;;;;;;7.60;4.87;;;;;;;;;;5046821;28;20278;-76
2021/03/21 05:57:35;;;;;;;7.37;4.63;;;;;;;;;;5046626;28;20183;-77
2021/03/21 06:00:20;;;;;;;9.00;5.03;;;;;;;;;;5030185;28;20170;-77
2021/03/21 06:02:55;;;;;;;6.73;4.53;;;;;;;;;;5029846;28;20593;-77
2021/03/21 06:05:33;;;;;;;8.10;4.77;;;;;;;;;;5031652;28;20671;-76
2021/03/21 06:08:08;;;;;;;7.33;4.53;;;;;;;;;;5034995;28;20248;-77
2021/03/21 06:10:34;;;;;;;5.87;4.20;;;;;;;;;;5033765;28;20232;-77
2021/03/21 06:13:19;;;;;;;7.43;4.47;;;;;;;;;;5034901;28;20183;-77
2021/03/21 06:15:58;;;;;;;6.20;4.37;;;;;;;;;;5033783;28;20834;-76
2021/03/21 06:18:27;;;;;;;10.60;4.33;;;;;;;;;;5033995;28;20216;-76
2021/03/21 06:20:59;;;;;;;6.37;4.47;;;;;;;;;;5034186;28;20609;-77
2021/03/21 06:23:33;;;;;;;6.87;4.30;;;;;;;;;;5033328;28;20206;-77
2021/03/21 06:26:02;;;;;;;5.97;4.47;;;;;;;;;;5017075;28;20175;-76
2021/03/21 06:28:37;;;;;;;8.97;4.30;;;;;;;;;;5017036;28;20196;-77
2021/03/21 06:31:03;;;;;;;5.93;4.07;;;;;;;;;;5033377;28;20644;-77
2021/03/21 06:33:37;;;;;;;7.67;4.60;;;;;;;;;;5034375;28;20233;-78
2021/03/21 06:36:10;;;;;;;5.50;3.90;;;;;;;;;;5016998;28;20178;-77
2021/03/21 06:38:46;;;;;;;7.10;4.07;;;;;;;;;;5016719;28;20253;-78
2021/03/21 06:41:19;;;;;;;5.67;3.77;;;;;;;;;;5032988;28;20182;-79
2021/03/21 06:44:04;;;;;;;7.90;3.90;;;;;;;;;;5032617;28;20289;-77
2021/03/21 06:46:42;;;;;;;5.53;4.10;;;;;;;;;;5045619;28;20273;-77
2021/03/21 06:49:11;;;;;;;6.23;3.00;;;;;;;;;;5052829;28;20210;-77
2021/03/21 06:51:38;;;;;;;8.07;3.30;;;;;;;;;;5052738;28;20182;-79
2021/03/21 06:54:13;;;;;;;7.70;3.40;;;;;;;;;;5052882;28;20188;-78
2021/03/21 06:56:59;;;;;;;6.43;3.57;;;;;;;;;;5052766;28;20177;-79
2021/03/21 06:59:44;;;;;;;5.47;3.70;;;;;;;;;;5053867;28;20267;-78
2021/03/21 07:02:19;;;;;;;4.67;3.10;;;;;;;;;;5052329;28;20214;-78
2021/03/21 07:05:04;;;;;;;8.87;3.60;;;;;;;;;;5052849;28;20582;-78
2021/03/21 07:07:49;;;;;;;4.37;2.90;;;;;;;;;;5052550;28;20272;-78
2021/03/21 07:10:27;;;;;;;6.10;3.30;;;;;;;;;;5052315;28;20192;-77
2021/03/21 07:12:56;;;;;;;6.63;3.27;;;;;;;;;;5052263;28;20235;-79
2021/03/21 07:15:25;;;;;;;4.87;2.90;;;;;;;;;;5046225;28;20180;-77
2021/03/21 07:17:54;;;;;;;4.03;2.60;;;;;;;;;;5016183;28;20199;-77
2021/03/21 07:20:29;;;;;;;4.23;2.00;;;;;;;;;;5031574;28;20654;-77
2021/03/21 07:23:04;;;;;;;5.03;2.10;;;;;;;;;;5031965;28;20260;-79
2021/03/21 07:25:30;;;;;;;5.40;2.50;;;;;;;;;;5032339;28;20552;-78
2021/03/21 07:27:58;;;;;;;4.90;2.00;;;;;;;;;;5032130;28;20264;-76
2021/03/21 07:30:41;;;;;;;3.63;2.07;;;;;;;;;;5032181;28;20189;-75
2021/03/21 07:33:13;;;;;;;6.93;2.00;;;;;;;;;;5015607;28;20264;-75
2021/03/21 07:35:39;;;;;;;4.73;2.00;;;;;;;;;;5033286;28;20265;-76
2021/03/21 07:38:14;;;;;;;6.80;2.20;;;;;;;;;;5032049;28;20293;-78
2021/03/21 07:40:48;;;;;;;4.50;2.00;;;;;;;;;;5033355;28;20648;-78
2021/03/21 07:43:14;;;;;;;4.90;1.90;;;;;;;;;;5031859;28;20206;-78
2021/03/21 07:45:59;;;;;;;9.17;2.23;;;;;;;;;;5031850;28;20190;-76
2021/03/21 07:49:03;;;;;;;11.97;2.23;;;;;;;;;;5031649;28;20235;-76
2021/03/21 07:51:42;;;;;;;6.60;2.27;;;;;;;;;;4955733;28;20184;-79
2021/03/21 07:54:12;;;;;;;8.10;1.83;;;;;;;;;;4955582;28;20281;-78
2021/03/21 07:56:53;;;;;;;9.90;1.87;;;;;;;;;;4982905;28;20193;-76
2021/03/21 07:59:19;;;;;;;13.23;2.50;;;;;;;;;;5048908;28;20225;-78
2021/03/21 08:01:46;;;;;;;12.90;2.03;;;;;;;;;;5048393;28;20202;-82
2021/03/21 08:04:15;;;;;;;10.60;2.30;;;;;;;;;;5031706;28;20193;-80
2021/03/21 08:06:55;;;;;;;9.03;2.50;;;;;;;;;;5031710;28;20202;-78
2021/03/21 08:09:21;;;;;;;5.60;1.90;;;;;;;;;;5048064;28;20199;-82
2021/03/21 08:11:49;;;;;;;9.73;2.27;;;;;;;;;;5048244;28;20679;-79
2021/03/21 08:14:16;;;;;;;10.60;1.90;;;;;;;;;;5047978;28;20182;-79
2021/03/21 08:16:44;;;;;;;10.73;2.27;;;;;;;;;;5048502;28;20270;-81
2021/03/21 08:19:14;;;;;;;10.40;2.93;;;;;;;;;;5048503;28;20297;-81
2021/03/21 08:21:40;;;;;;;9.60;2.33;;;;;;;;;;5048141;28;20181;-78
2021/03/21 08:24:11;;;;;;;12.80;2.17;;;;;;;;;;5014604;28;20710;-77
2021/03/21 08:26:37;;;;;;;12.20;2.43;;;;;;;;;;5048020;28;20186;-82
2021/03/21 08:29:10;;;;;;;10.90;2.17;;;;;;;;;;5047760;28;20264;-80
2021/03/21 08:31:40;;;;;;;13.43;2.60;;;;;;;;;;5031892;28;20535;-82
2021/03/21 08:34:29;;;;;;;10.63;2.13;;;;;;;;;;5035175;28;20238;-82
2021/03/21 08:36:59;;;;;;;15.27;2.60;;;;;;;;;;5028568;28;20186;-81
2021/03/21 08:39:29;;;;;;;11.10;2.50;;;;;;;;;;5034327;28;20267;-80
2021/03/21 08:41:55;;;;;;;6.90;2.13;;;;;;;;;;5044146;28;20182;-81
2021/03/21 08:44:34;;;;;;;16.63;2.60;;;;;;;;;;5014534;28;20187;-81
2021/03/21 08:47:00;;;;;;;13.30;2.97;;;;;;;;;;5030652;28;20193;-81
2021/03/21 08:49:32;;;;;;;15.97;2.57;;;;;;;;;;5006260;28;20206;-79
2021/03/21 08:51:59;;;;;;;14.77;3.07;;;;;;;;;;5014389;28;20266;-81
2021/03/21 08:54:27;;;;;;;12.40;2.87;;;;;;;;;;5014579;28;20228;-80
2021/03/21 08:56:56;;;;;;;10.33;2.47;;;;;;;;;;5007763;28;20199;-81
2021/03/21 08:59:26;;;;;;;20.47;3.77;;;;;;;;;;5030421;28;20242;-81
2021/03/21 09:05:03;;;;;;;18.90;3.27;;;;;;;;;;5031622;28;20590;-79
2021/03/21 09:07:30;;;;;;;15.53;3.10;;;;;;;;;;5014138;28;20305;-81
2021/03/21 09:10:05;;;;;;;17.57;3.40;;;;;;;;;;5014289;28;20178;-82
2021/03/21 09:12:33;;;;;;;21.13;3.60;;;;;;;;;;5029763;28;20274;-82
2021/03/21 09:15:31;;;;;;;17.57;3.90;;;;;;;;;;5020723;28;20187;-80
2021/03/21 09:18:01;;;;;;;18.77;3.53;;;;;;;;;;4981331;28;20243;-81
2021/03/21 09:20:27;;;;;;;24.27;3.40;;;;;;;;;;5010739;28;20211;-81
2021/03/21 09:22:53;;;;;;;17.33;3.80;;;;;;;;;;5000829;28;20198;-82
2021/03/21 09:25:19;;;;;;;19.60;3.57;;;;;;;;;;5046788;28;20191;-81
2021/03/21 09:27:46;;;;;;;27.20;4.40;;;;;;;;;;5030181;28;20596;-81
2021/03/21 09:30:12;;;;;;;19.57;3.40;;;;;;;;;;5047185;28;20584;-81
2021/03/21 09:32:38;;;;;;;20.27;4.07;;;;;;;;;;5030211;28;20190;-79
2021/03/21 09:35:24;;;;;;;23.87;3.87;;;;;;;;;;5047032;28;20187;-79
2021/03/21 09:37:50;;;;;;;21.60;4.43;;;;;;;;;;5009758;28;20211;-77
2021/03/21 09:40:16;;;;;;;17.70;3.90;;;;;;;;;;5046980;28;20190;-79
2021/03/21 09:42:42;;;;;;;27.80;4.67;;;;;;;;;;5046587;28;20580;-77
2021/03/21 09:45:08;;;;;;;14.93;3.63;;;;;;;;;;5037661;28;20637;-81
2021/03/21 09:48:07;;;;;;;19.87;3.97;;;;;;;;;;5054114;28;20205;-80
2021/03/21 09:50:46;;;;;;;23.60;3.87;;;;;;;;;;4980672;28;20198;-82
2021/03/21 09:53:12;;;;;;;19.37;3.40;;;;;;;;;;5033841;28;20186;-81
2021/03/21 09:55:40;;;;;;;16.33;3.83;;;;;;;;;;5032957;28;20202;-81
2021/03/21 09:58:25;;;;;;;21.27;3.47;;;;;;;;;;5017020;28;20220;-80
2021/03/21 10:00:59;;;;;;;29.07;4.53;;;;;;;;;;5028914;28;20324;-80
2021/03/21 10:03:32;;;;;;;23.40;3.53;;;;;;;;;;5016835;28;20194;-79
2021/03/21 10:06:05;;;;;;;21.90;3.87;;;;;;;;;;5017157;28;20183;-80
2021/03/21 10:08:31;;;;;;;18.70;4.07;;;;;;;;;;5013927;28;20203;-78
2021/03/21 10:10:57;;;;;;;23.23;4.43;;;;;;;;;;5028144;28;20236;-79
2021/03/21 10:13:33;;;;;;;20.43;4.77;;;;;;;;;;5017976;28;20202;-79
2021/03/21 10:16:11;;;;;;;20.60;4.00;;;;;;;;;;5034779;28;20178;-81
2021/03/21 10:18:43;;;;;;;17.03;4.33;;;;;;;;;;5033744;28;20206;-80
2021/03/21 10:21:10;;;;;;;28.67;4.67;;;;;;;;;;5033744;28;20187;-78
2021/03/21 10:23:51;;;;;;;19.77;4.47;;;;;;;;;;5017233;28;20202;-78
2021/03/21 10:26:21;;;;;;;18.27;4.40;;;;;;;;;;5034727;28;20556;-77
2021/03/21 10:28:48;;;;;;;21.87;4.27;;;;;;;;;;5052992;28;20199;-85
2021/03/21 10:31:26;;;;;;;27.53;4.97;;;;;;;;;;5052489;28;20191;-84
2021/03/21 10:34:04;;;;;;;21.37;4.60;;;;;;;;;;5035036;28;20253;-82
2021/03/21 10:39:06;;;;;;;20.53;4.30;;;;;;;;;;5032092;28;20217;-78
2021/03/21 10:41:52;;;;;;;21.67;3.90;;;;;;;;;;5016942;28;20183;-79
2021/03/21 10:44:18;;;;;;;16.60;3.30;;;;;;;;;;5014488;28;20195;-80
2021/03/21 10:46:49;;;;;;;20.53;4.37;;;;;;;;;;4997950;28;20675;-78
2021/03/21 10:49:34;;;;;;;17.23;3.90;;;;;;;;;;5007937;28;20299;-78
2021/03/21 10:52:07;;;;;;;21.03;3.90;;;;;;;;;;5031847;28;20186;-77
2021/03/21 10:54:33;;;;;;;17.67;3.77;;;;;;;;;;5016324;28;20665;-80
2021/03/21 10:57:22;;;;;;;27.20;5.07;;;;;;;;;;5016499;28;20658;-79
2021/03/21 11:00:01;;;;;;;22.10;4.00;;;;;;;;;;5016552;28;20213;-79
2021/03/21 11:02:27;;;;;;;24.17;4.47;;;;;;;;;;5041976;28;20298;-80
2021/03/21 11:05:08;;;;;;;22.03;4.07;;;;;;;;;;5049243;28;20616;-80
2021/03/21 11:07:34;;;;;;;24.27;4.80;;;;;;;;;;5032627;28;20210;-80
2021/03/21 11:10:01;;;;;;;22.17;3.53;;;;;;;;;;5016033;28;20183;-80
2021/03/21 11:12:35;;;;;;;20.03;3.53;;;;;;;;;;5032445;28;20256;-80
2021/03/21 11:15:20;;;;;;;27.70;4.43;;;;;;;;;;5016209;28;20268;-79
2021/03/21 11:17:46;;;;;;;21.17;4.03;;;;;;;;;;5032387;28;20209;-81
2021/03/21 11:20:29;;;;;;;24.17;4.47;;;;;;;;;;5015721;28;20211;-79
2021/03/21 11:22:55;;;;;;;18.43;3.87;;;;;;;;;;5014419;28;20195;-79
2021/03/21 11:25:31;;;;;;;17.77;3.63;;;;;;;;;;5012333;28;20710;-79
2021/03/21 11:27:57;;;;;;;20.97;4.20;;;;;;;;;;5009466;28;20207;-80
2021/03/21 11:30:29;;;;;;;27.63;4.47;;;;;;;;;;5036980;28;20186;-80
2021/03/21 11:33:15;;;;;;;22.10;4.33;;;;;;;;;;5021929;28;20266;-79
2021/03/21 11:35:41;;;;;;;24.33;4.37;;;;;;;;;;5031541;28;20187;-78
2021/03/21 11:38:26;;;;;;;21.67;4.40;;;;;;;;;;5032169;28;20253;-78
2021/03/21 11:40:53;;;;;;;25.00;4.43;;;;;;;;;;5042117;28;20224;-79
2021/03/21 11:43:19;;;;;;;24.13;4.33;;;;;;;;;;5015574;28;20281;-80
2021/03/21 11:45:45;;;;;;;23.70;4.73;;;;;;;;;;5033193;28;20585;-79
2021/03/21 11:48:11;;;;;;;22.33;3.83;;;;;;;;;;5015518;28;20202;-79
2021/03/21 11:50:38;;;;;;;20.93;4.57;;;;;;;;;;5037932;28;20179;-78
2021/03/21 11:53:06;;;;;;;23.00;4.07;;;;;;;;;;5032384;28;20182;-78
2021/03/21 11:55:39;;;;;;;18.17;4.03;;;;;;;;;;5035525;28;20267;-79
2021/03/21 11:58:24;;;;;;;22.60;3.83;;;;;;;;;;5037906;28;20225;-79
2021/03/21 12:00:56;;;;;;;24.20;4.63;;;;;;;;;;5051766;28;20666;-80
2021/03/21 12:03:23;;;;;;;21.97;4.90;;;;;;;;;;5051037;28;20236;-79
2021/03/21 12:05:58;;;;;;;25.40;4.73;;;;;;;;;;5035455;28;20174;-80
2021/03/21 12:08:25;;;;;;;21.20;4.53;;;;;;;;;;5051597;28;20217;-78
2021/03/21 12:10:52;;;;;;;26.40;4.47;;;;;;;;;;5031669;28;20187;-79
2021/03/21 12:13:33;;;;;;;17.93;4.07;;;;;;;;;;5015022;28;20575;-77
2021/03/21 12:16:00;;;;;;;19.40;4.27;;;;;;;;;;5028343;28;20659;-78
2021/03/21 12:18:30;;;;;;;20.30;4.10;;;;;;;;;;4995444;28;20211;-77
2021/03/21 12:20:58;;;;;;;18.17;3.93;;;;;;;;;;4995380;28;20184;-78
2021/03/21 12:23:24;;;;;;;28.93;4.77;;;;;;;;;;4995571;28;20214;-78
2021/03/21 12:26:01;;;;;;;23.53;4.83;;;;;;;;;;5028825;28;20224;-78
2021/03/21 12:28:28;;;;;;;23.30;4.70;;;;;;;;;;5047722;28;20571;-79
2021/03/21 12:30:54;;;;;;;23.43;4.73;;;;;;;;;;5049599;28;20182;-78
2021/03/21 12:33:26;;;;;;;18.60;4.30;;;;;;;;;;5017789;28;20199;-78
2021/03/21 12:35:52;;;;;;;20.03;4.60;;;;;;;;;;5011434;28;20180;-77
2021/03/21 12:38:27;;;;;;;26.00;4.80;;;;;;;;;;5011342;28;20200;-77
2021/03/21 12:40:53;;;;;;;21.43;4.27;;;;;;;;;;5027970;28;20185;-78
2021/03/21 12:43:20;;;;;;;19.13;5.10;;;;;;;;;;5027484;28;20231;-77
2021/03/21 12:46:00;;;;;;;20.13;4.33;;;;;;;;;;5027737;28;20176;-78
2021/03/21 12:48:26;;;;;;;21.63;4.43;;;;;;;;;;5027571;28;20286;-78
2021/03/21 12:50:52;;;;;;;23.87;4.10;;;;;;;;;;5027681;28;20219;-78
2021/03/21 12:53:26;;;;;;;20.37;3.43;;;;;;;;;;5027428;28;20270;-76
2021/03/21 12:55:53;;;;;;;24.93;3.83;;;;;;;;;;5027600;28;20706;-78
2021/03/21 12:58:19;;;;;;;19.73;3.53;;;;;;;;;;5027483;28;20199;-78
2021/03/21 13:00:45;;;;;;;26.70;4.63;;;;;;;;;;5032485;28;20186;-78
2021/03/21 13:03:16;;;;;;;18.30;3.97;;;;;;;;;;5011727;28;20206;-77
2021/03/21 13:05:45;;;;;;;20.30;4.73;;;;;;;;;;5006540;28;20183;-79
2021/03/21 13:08:11;;;;;;;23.03;4.10;;;;;;;;;;4996774;28;20203;-76
2021/03/21 13:10:37;;;;;;;12.20;3.00;;;;;;;;;;5003739;28;20178;-76
2021/03/21 13:13:04;;;;;;;16.03;3.80;;;;;;;;;;5047225;28;20555;-77
2021/03/21 13:15:30;;;;;;;21.03;4.00;;;;;;;;;;5047548;28;20180;-76
2021/03/21 13:17:56;;;;;;;26.23;4.00;;;;;;;;;;5051125;28;20293;-76
2021/03/21 13:20:22;;;;;;;23.00;3.73;;;;;;;;;;5051337;28;20207;-76
2021/03/21 13:22:48;;;;;;;19.83;4.07;;;;;;;;;;5051121;28;20832;-76
2021/03/21 13:25:22;;;;;;;17.00;3.70;;;;;;;;;;5051364;28;20183;-75
2021/03/21 13:27:49;;;;;;;24.63;4.10;;;;;;;;;;5052061;28;20202;-76
2021/03/21 13:30:16;;;;;;;23.47;4.80;;;;;;;;;;5018173;28;20286;-76
2021/03/21 13:32:42;;;;;;;28.03;4.50;;;;;;;;;;5017860;28;20191;-76
2021/03/21 13:35:09;;;;;;;23.00;3.93;;;;;;;;;;5018219;28;20183;-76
2021/03/21 13:37:35;;;;;;;18.33;3.93;;;;;;;;;;5018809;28;20210;-77
2021/03/21 13:40:04;;;;;;;18.87;4.23;;;;;;;;;;5018392;28;20681;-76
2021/03/21 13:42:30;;;;;;;18.67;3.80;;;;;;;;;;5018408;28;20294;-76
2021/03/21 13:44:56;;;;;;;18.37;3.70;;;;;;;;;;5017988;28;20186;-75
2021/03/21 13:47:22;;;;;;;23.17;4.70;;;;;;;;;;5017715;28;20208;-75
2021/03/21 13:49:48;;;;;;;28.57;4.87;;;;;;;;;;5017767;28;20202;-76
2021/03/21 13:52:14;;;;;;;30.63;4.23;;;;;;;;;;5017502;28;20179;-76
2021/03/21 13:54:41;;;;;;;24.60;4.07;;;;;;;;;;5017479;28;20179;-75
2021/03/21 13:57:07;;;;;;;21.73;4.67;;;;;;;;;;5017463;28;20218;-75
2021/03/21 13:59:33;;;;;;;25.13;4.57;;;;;;;;;;5017358;28;20285;-77
2021/03/21 14:01:59;;;;;;;29.20;4.40;;;;;;;;;;5017408;28;20231;-76
2021/03/21 14:04:25;;;;;;;22.40;4.20;;;;;;;;;;5017189;28;20213;-75
2021/03/21 14:06:51;;;;;;;19.83;4.37;;;;;;;;;;5017167;28;20179;-75
2021/03/21 14:09:17;;;;;;;24.97;4.57;;;;;;;;;;5017533;28;20220;-76
2021/03/21 14:11:43;;;;;;;21.50;4.10;;;;;;;;;;5017223;28;20175;-76
2021/03/21 14:14:11;;;;;;;22.83;4.03;;;;;;;;;;5033464;28;20183;-76
2021/03/21 14:16:37;;;;;;;15.43;3.50;;;;;;;;;;5017339;28;20285;-76
2021/03/21 14:19:03;;;;;;;16.67;3.50;;;;;;;;;;5017077;28;20579;-76
2021/03/21 14:21:29;;;;;;;22.37;4.07;;;;;;;;;;5033559;28;20179;-76
2021/03/21 14:23:55;;;;;;;22.27;4.50;;;;;;;;;;5016550;28;20206;-76
2021/03/21 14:26:21;;;;;;;18.57;3.13;;;;;;;;;;5016664;28;20176;-76
2021/03/21 14:28:47;;;;;;;22.97;4.37;;;;;;;;;;5016837;28;20260;-76
2021/03/21 14:31:13;;;;;;;21.03;4.33;;;;;;;;;;5016718;28;20669;-76
2021/03/21 14:33:39;;;;;;;12.27;3.03;;;;;;;;;;5016479;28;20179;-76
2021/03/21 14:36:06;;;;;;;19.30;4.23;;;;;;;;;;5016879;28;20179;-75
2021/03/21 14:38:32;;;;;;;15.77;3.27;;;;;;;;;;5017790;28;20290;-75
2021/03/21 14:40:58;;;;;;;18.30;3.33;;;;;;;;;;5020290;28;20171;-75
2021/03/21 14:43:24;;;;;;;14.83;2.63;;;;;;;;;;5021515;28;20242;-75
2021/03/21 14:45:51;;;;;;;21.37;4.33;;;;;;;;;;5016277;28;20201;-78
2021/03/21 14:48:17;;;;;;;17.20;3.83;;;;;;;;;;5016142;28;20215;-76
2021/03/21 14:50:43;;;;;;;18.87;3.67;;;;;;;;;;5016118;28;20193;-76
2021/03/21 14:53:09;;;;;;;28.07;6.23;;;;;;;;;;5016609;28;20638;-76
2021/03/21 14:55:37;;;;;;;27.07;5.10;;;;;;;;;;5013694;28;20186;-76
2021/03/21 14:58:06;;;;;;;17.73;4.67;;;;;;;;;;5015738;28;20219;-76
2021/03/21 15:00:33;;;;;;;21.53;4.50;;;;;;;;;;5032354;28;20586;-76
2021/03/21 15:03:01;;;;;;;22.43;4.10;;;;;;;;;;5016553;28;20201;-76
2021/03/21 15:05:27;;;;;;;19.73;3.80;;;;;;;;;;5016523;28;20179;-77